createdAt,value
2022-10-05T00:05:41.463Z,72
2022-10-05T00:11:47.159Z,71.9
2022-10-05T00:17:19.921Z,72.1
2022-10-05T00:22:54.623Z,72.1
2022-10-05T00:28:32.525Z,72
2022-10-05T00:34:07.904Z,72
2022-10-05T00:40:12.429Z,72
2022-10-05T00:45:49.846Z,72.3
2022-10-05T00:51:39.317Z,72.5
2022-10-05T00:57:25.204Z,72.6
2022-10-05T01:03:01.727Z,72.6
2022-10-05T01:08:52.364Z,72.7
2022-10-05T01:14:51.026Z,72.6
2022-10-05T01:20:41.887Z,72.6
2022-10-05T01:26:21.965Z,72.6
2022-10-05T01:31:57.605Z,72.8
2022-10-05T01:37:34.234Z,73.1
2022-10-05T01:43:09.034Z,73.3
2022-10-05T01:49:00.250Z,73.5
2022-10-05T01:54:37.585Z,74
2022-10-05T02:00:20.926Z,74.1
2022-10-05T02:06:08.724Z,74
2022-10-05T02:12:17.762Z,73.8
2022-10-05T02:18:17.948Z,73.8
2022-10-05T02:24:12.701Z,74
2022-10-05T02:30:01.392Z,74.1
2022-10-05T02:35:36.273Z,74
2022-10-05T02:41:14.385Z,73.9
2022-10-05T02:47:10.155Z,73.5
2022-10-05T02:52:44.872Z,73.4
2022-10-05T02:59:04.330Z,73.3
2022-10-05T03:04:48.058Z,73.6
2022-10-05T03:10:46.434Z,73.7
2022-10-05T03:16:25.229Z,73.6
2022-10-05T03:22:01.425Z,73.7
2022-10-05T03:27:37.377Z,73.8
2022-10-05T03:34:16.916Z,73.6
2022-10-05T03:40:01.362Z,73.6
2022-10-05T03:45:57.170Z,73.6
2022-10-05T03:51:41.363Z,73.9
2022-10-05T03:57:16.316Z,73.8
2022-10-05T04:02:54.598Z,73.7
2022-10-05T04:08:31.372Z,73.4
2022-10-05T04:14:49.466Z,73.7
2022-10-05T04:20:24.403Z,74.1
2022-10-05T04:26:03.356Z,73.9
2022-10-05T04:31:47.531Z,73.7
2022-10-05T04:37:23.568Z,73.7
2022-10-05T04:43:08.858Z,74.1
2022-10-05T04:48:44.091Z,74.3
2022-10-05T04:54:39.934Z,74.4
2022-10-05T05:00:19.494Z,74.1
2022-10-05T05:06:40.382Z,74
2022-10-05T05:12:16.487Z,73.9
2022-10-05T05:17:59.649Z,73.6
2022-10-05T05:23:43.351Z,73.5
2022-10-05T05:29:19.405Z,73.6
2022-10-05T05:34:59.929Z,73.8
2022-10-05T05:40:36.074Z,73.8
2022-10-05T05:47:04.281Z,73.6
2022-10-05T05:53:00.057Z,73.5
2022-10-05T05:58:35.141Z,73.2
2022-10-05T06:04:33.234Z,77.7
2022-10-05T06:10:08.279Z,78.2
2022-10-05T06:16:20.416Z,80.6
2022-10-05T06:21:57.877Z,80.9
2022-10-05T06:27:37.465Z,80.7
2022-10-05T06:33:12.756Z,81.1
2022-10-05T06:38:52.685Z,81.5
2022-10-05T06:44:27.736Z,81
2022-10-05T06:50:09.001Z,81.9
2022-10-05T06:55:59.218Z,80.7
2022-10-05T07:01:34.550Z,81.5
2022-10-05T07:07:32.605Z,81.9
2022-10-05T07:13:41.209Z,81.4
2022-10-05T07:19:16.095Z,81.8
2022-10-05T07:24:52.283Z,82.3
2022-10-05T07:30:27.218Z,82.3
2022-10-05T07:36:03.755Z,81
2022-10-05T07:41:39.032Z,80.9
2022-10-05T07:47:14.117Z,81.5
2022-10-05T07:52:49.283Z,79.7
2022-10-05T07:58:24.497Z,79
2022-10-05T08:03:59.551Z,79.2
2022-10-05T08:09:35.908Z,79.1
2022-10-05T08:15:10.942Z,79.1
2022-10-05T08:20:45.816Z,78.6
2022-10-05T08:26:20.634Z,78.2
2022-10-05T08:31:57.199Z,77.2
2022-10-05T08:37:32.313Z,77.5
2022-10-05T08:43:08.820Z,77.2
2022-10-05T08:48:44.434Z,76.7
2022-10-05T08:54:19.301Z,76.4
2022-10-05T08:59:54.319Z,75.6
2022-10-05T09:05:34.867Z,74.1
2022-10-05T09:11:31.739Z,75.2
2022-10-05T09:17:04.500Z,74.8
2022-10-05T09:22:39.502Z,72.8
2022-10-05T09:28:14.808Z,71.3
2022-10-05T09:33:50.872Z,71.3
2022-10-05T09:39:27.390Z,68.5
2022-10-05T09:45:11.114Z,68.7
2022-10-05T09:50:46.249Z,69.2
2022-10-05T09:56:21.687Z,65
2022-10-05T10:01:57.393Z,64.9
2022-10-05T10:07:36.848Z,64.4
2022-10-05T10:14:08.915Z,51
2022-10-05T10:19:42.038Z,52.4
2022-10-05T10:25:18.980Z,53.3
2022-10-05T10:30:55.093Z,55.9
2022-10-05T10:36:30.760Z,55.6
2022-10-05T10:42:07.365Z,58.4
2022-10-05T10:47:42.847Z,57.8
2022-10-05T10:53:18.428Z,58.2
2022-10-05T10:58:53.462Z,59.8
2022-10-05T11:04:30.026Z,42.8
2022-10-05T11:10:06.217Z,49.7
2022-10-05T11:15:44.564Z,47.1
2022-10-05T11:21:21.505Z,50.1
2022-10-05T11:26:56.513Z,46.7
2022-10-05T11:32:31.794Z,42.4
2022-10-05T11:38:09.326Z,44.4
2022-10-05T11:43:44.209Z,41.5
2022-10-05T11:49:19.761Z,40
2022-10-05T11:55:12.461Z,36.9
2022-10-05T12:00:49.103Z,37.4
2022-10-05T12:06:24.790Z,38.9
2022-10-05T12:12:21.773Z,45.7
2022-10-05T12:17:54.930Z,46.9
2022-10-05T12:23:34.965Z,46.9
2022-10-05T12:29:09.835Z,46.7
2022-10-05T12:35:02.333Z,46.3
2022-10-05T12:41:11.089Z,45.5
2022-10-05T12:46:54.011Z,44.7
2022-10-05T12:52:37.964Z,44.9
2022-10-05T12:58:14.363Z,45
2022-10-05T13:04:00.340Z,45.3
2022-10-05T13:09:56.270Z,45
2022-10-05T13:15:35.946Z,43.8
2022-10-05T13:21:11.175Z,43.9
2022-10-05T13:26:46.881Z,42.7
2022-10-05T13:32:34.615Z,42.3
2022-10-05T13:38:10.922Z,41.4
2022-10-05T13:43:45.827Z,40.1
2022-10-05T13:49:20.773Z,40.1
2022-10-05T13:55:26.355Z,38.6
2022-10-05T14:01:35.632Z,38.2
2022-10-05T14:07:24.053Z,38.6
2022-10-05T14:13:21.274Z,38.5
2022-10-05T14:18:55.331Z,39.1
2022-10-05T14:24:45.930Z,39.1
2022-10-05T14:30:30.203Z,38.9
2022-10-05T14:36:07.267Z,39.2
2022-10-05T14:41:47.305Z,39.8
2022-10-05T14:48:08.398Z,39.7
2022-10-05T14:53:59.120Z,40.8
2022-10-05T14:59:35.764Z,41.8
2022-10-05T15:05:16.493Z,42.8
2022-10-05T15:11:13.257Z,43.5
2022-10-05T15:16:46.258Z,44.1
2022-10-05T15:22:27.415Z,44.9
2022-10-05T15:28:02.704Z,45.7
2022-10-05T15:33:43.050Z,46.4
2022-10-05T15:39:27.446Z,47
2022-10-05T15:45:01.977Z,47.7
2022-10-05T15:51:19.257Z,48.5
2022-10-05T15:56:53.983Z,49.4
2022-10-05T16:02:32.542Z,48.1
2022-10-05T16:08:09.387Z,49.5
2022-10-05T16:14:10.286Z,50.9
2022-10-05T16:19:43.161Z,52.4
2022-10-05T16:25:39.223Z,53.7
2022-10-05T16:31:18.272Z,56.6
2022-10-05T16:37:02.908Z,60
2022-10-05T16:42:41.988Z,61.9
2022-10-05T16:48:20.134Z,64.6
2022-10-05T16:53:58.082Z,66.1
2022-10-05T16:59:53.955Z,68
2022-10-05T17:05:35.676Z,69
2022-10-05T17:11:18.190Z,69.6
2022-10-05T17:16:53.265Z,70.9
2022-10-05T17:22:29.891Z,72.4
2022-10-05T17:28:06.976Z,73.6
2022-10-05T17:33:46.822Z,73.9
2022-10-05T17:39:21.658Z,74.1
2022-10-05T17:44:56.382Z,74.3
2022-10-05T17:50:31.308Z,74.8
2022-10-05T17:56:06.330Z,75.1
2022-10-05T18:01:41.274Z,75.4
2022-10-05T18:07:17.848Z,76.7
2022-10-05T18:12:52.597Z,76.4
2022-10-05T18:18:28.309Z,76.7
2022-10-05T18:24:03.503Z,77.1
2022-10-05T18:29:38.230Z,77.1
2022-10-05T18:35:13.361Z,78.3
2022-10-05T18:40:49.020Z,77.7
2022-10-05T18:46:24.768Z,78.1
2022-10-05T18:52:01.664Z,77.9
2022-10-05T18:57:39.376Z,75.7
2022-10-05T19:03:14.371Z,74.4
2022-10-05T19:08:50.351Z,73.3
2022-10-05T19:14:28.453Z,73
2022-10-05T19:20:03.845Z,72.8
2022-10-05T19:25:38.556Z,72.6
2022-10-05T19:31:15.285Z,72.4
2022-10-05T19:36:51.094Z,72.4
2022-10-05T19:42:25.929Z,72.3
2022-10-05T19:48:01.059Z,72.3
2022-10-05T19:53:36.917Z,72.3
2022-10-05T19:59:20.840Z,72.3
2022-10-05T20:04:55.805Z,72.3
2022-10-05T20:10:31.500Z,72.4
2022-10-05T20:16:08.261Z,72.5
2022-10-05T20:21:44.616Z,72.6
2022-10-05T20:27:40.283Z,72.6
2022-10-05T20:33:16.104Z,72.7
2022-10-05T20:38:53.629Z,72.7
2022-10-05T20:44:38.903Z,72.6
2022-10-05T20:50:13.702Z,72.5
2022-10-05T20:55:48.532Z,72.6
2022-10-05T21:01:23.910Z,72.6
2022-10-05T21:06:59.296Z,72.8
2022-10-05T21:12:34.832Z,72.9
2022-10-05T21:18:11.102Z,72.9
2022-10-05T21:23:45.998Z,72.9
2022-10-05T21:29:21.238Z,73.1
2022-10-05T21:34:57.338Z,73.2
2022-10-05T21:40:35.440Z,73.2
2022-10-05T21:46:10.776Z,73.3
2022-10-05T21:51:52.295Z,73.5
2022-10-05T21:57:30.158Z,73.7
2022-10-05T22:03:05.269Z,73.8
2022-10-05T22:08:40.522Z,74
2022-10-05T22:14:16.435Z,74.1
2022-10-05T22:19:51.398Z,74.1
2022-10-05T22:25:26.549Z,74.2
2022-10-05T22:31:01.352Z,74.3
2022-10-05T22:36:57.871Z,74.3
2022-10-05T22:42:33.269Z,74.5
2022-10-05T22:48:11.160Z,74.6
2022-10-05T22:53:50.261Z,74.6
2022-10-05T22:59:26.028Z,74.6
2022-10-05T23:05:00.942Z,74.7
2022-10-05T23:10:42.107Z,74.8
2022-10-05T23:16:23.730Z,74.9
2022-10-05T23:21:59.209Z,75
2022-10-05T23:27:35.141Z,75.1
2022-10-05T23:33:10.042Z,75.1
2022-10-05T23:38:45.417Z,75.3
2022-10-05T23:44:20.386Z,75.6
2022-10-05T23:49:55.092Z,75.7
2022-10-05T23:55:30.106Z,75.8
